Early, TX

6:33 PM CST on February 07, 2016 (GMT -0600)
Early | | Change Station
CLOSE
Current Station
Personal Weather Station
Location: Early, TX
Elevation: 1407 ft
Nearby Weather Stations
Active Advisory: Fire Weather Watch

Elev 1407 ft 31.74 °N, 98.94 °W | Updated 10 minutes ago

Clear
Clear
60.8 °F
Feels Like 60.8 °F
N
5.8
Wind Variable Wind from NNW

Today
High -- | Low -- °F
--% Chance of Precip.
Yesterday
High -- | Low -- °F
Precip. -- in
Pressure 30.12 in
Visibility 10.0 miles
Clouds Clear
Dew Point 16 °F
Humidity 17%
Rainfall 0.00 in
Snow Depth Not available.
7:24 AM 6:15 PM
Waning Crescent, 0% visible
METAR KBWD 080015Z AUTO 35010KT 10SM CLR 16/M07 A3012 RMK AO2
Pressure 30.12 in
Visibility 10.0 miles
Clouds Clear
Dew Point 16 °F
Humidity 17%
Rainfall 0.00 in
Snow Depth Not available.
7:24 AM 6:15 PM
Waning Crescent, 0% visible
METAR KBWD 080015Z AUTO 35010KT 10SM CLR 16/M07 A3012 RMK AO2

10-Day Weather Forecast

Almanac

Astronomy

Feb. 07, 2016 Rise Set
Actual Time
Civil Twilight
Nautical Twilight
Astronomical Twilight
Moon
Length of Visible Light
Length of Day
Tomorrow will be .
, % of the Moon is Illuminated

Today's Extremes

State Highs State Lows

Community

WunderPhotos

Upload Photos

1,891,340 photos uploaded!

WunderBlog® & News

Nearby

Air Quality

  Air Quality AQ Index Pollutant
Not available.

Snow Depth

Station Depth Elevation

Earthquake Activity

City Distance Mag. Time & Date
Minimum magnitude displayed is 2.5.

Coastal Water Temperatures

Place Temperature

Stations

Nearby Weather Stations

Station Location Temp. Windchill Dew Point Humidity Wind Precip. Elev Updated Type
                   

Watches & Warnings

Fire Weather Watch
Issued: 3:04 PM CST Feb. 7, 2016 – National Weather Service

... Fire Weather Watch in effect Monday afternoon for portions of
the Big Country and Heartland...

The National Weather Service in San Angelo has issued a Fire
Weather Watch... which is in effect Monday afternoon.

* Affected area... the portions of the Big Country and Heartland
mainly east of an Haskell to Abilene to San Saba line.

* Wind... north to northwest winds of near 20 mph..with gusts to 30
mph.

* Humidity... near 15 percent

* impacts... any fires that develop will likely spread rapidly.
Outdoor burning is not recommended. Use precautions to prevent
accident wildfires from starting.

Precautionary/preparedness actions...

A Fire Weather Watch means that critical fire weather conditions
are forecast to occur. Listen for later forecasts and possible
red flag warnings.